Time;durP1;ratioP1;P1;durP2;ratioP2;P2;SDS_P1;SDS_P2;PMS_P1;PMS_P2;Temp;Humidity;BMP_temperature;BMP_pressure;BME280_temperature;BME280_humidity;BME280_pressure;Samples;Min_cycle;Max_cycle;Signal;HPM_P1;HPM_P2
2022/11/06 00:00:40;;;;;;;16.65;7.20;;;10.00;99.90;;;;;;6186349;23;20017;-78
2022/11/06 00:03:06;;;;;;;14.77;7.47;;;10.00;99.90;;;;;;6159715;23;20017;-78
2022/11/06 00:08:29;;;;;;;12.55;7.10;;;9.90;99.90;;;;;;6186261;23;20028;-79
2022/11/06 00:10:55;;;;;;;11.73;7.65;;;9.90;99.90;;;;;;6185975;23;20113;-78
2022/11/06 00:13:20;;;;;;;10.27;6.68;;;9.90;99.90;;;;;;6159578;23;20052;-78
2022/11/06 00:15:46;;;;;;;12.88;7.88;;;9.90;99.90;;;;;;6186322;23;20471;-78
2022/11/06 00:18:12;;;;;;;12.32;8.15;;;9.90;99.90;;;;;;6186747;23;20075;-79
2022/11/06 00:20:37;;;;;;;17.50;8.00;;;9.80;99.90;;;;;;6186219;23;20013;-79
2022/11/06 00:23:03;;;;;;;12.50;8.27;;;9.80;99.90;;;;;;6186242;23;20013;-79
2022/11/06 00:25:29;;;;;;;15.00;8.50;;;9.80;99.90;;;;;;6186288;23;20028;-80
2022/11/06 00:27:54;;;;;;;12.13;8.93;;;9.80;99.90;;;;;;6159418;23;20028;-78
2022/11/06 00:30:20;;;;;;;13.43;8.27;;;9.80;99.90;;;;;;6185837;23;20024;-79
2022/11/06 00:32:47;;;;;;;11.45;8.75;;;9.80;99.90;;;;;;6159608;23;20024;-78
2022/11/06 00:35:12;;;;;;;15.52;8.95;;;9.70;99.90;;;;;;6159569;23;20048;-79
2022/11/06 00:37:38;;;;;;;15.50;9.95;;;9.70;99.90;;;;;;6159635;23;20040;-79
2022/11/06 00:40:04;;;;;;;16.23;8.48;;;9.60;99.90;;;;;;6159548;23;20021;-79
2022/11/06 00:42:30;;;;;;;15.20;9.20;;;9.70;99.90;;;;;;6159635;23;20025;-80
2022/11/06 00:44:56;;;;;;;16.60;8.95;;;9.70;99.90;;;;;;6159691;23;20402;-80
2022/11/06 00:47:22;;;;;;;14.75;9.38;;;9.60;99.90;;;;;;6161507;23;20083;-78
2022/11/06 00:49:47;;;;;;;17.88;9.00;;;9.60;99.90;;;;;;6188061;23;20421;-78
2022/11/06 00:52:13;;;;;;;18.65;10.10;;;9.60;99.90;;;;;;6161448;23;20021;-79
2022/11/06 00:54:38;;;;;;;16.65;9.52;;;9.60;99.90;;;;;;6187768;23;20025;-78
2022/11/06 00:57:04;;;;;;;19.52;10.05;;;9.60;99.90;;;;;;6188044;23;20013;-78
2022/11/06 00:59:30;;;;;;;15.48;10.60;;;9.60;99.90;;;;;;6187573;23;20345;-79
2022/11/06 01:01:55;;;;;;;16.48;9.25;;;9.60;99.90;;;;;;6188016;23;20017;-79
2022/11/06 01:04:22;;;;;;;18.20;10.07;;;9.60;99.90;;;;;;6161407;23;20056;-78
2022/11/06 01:06:51;;;;;;;20.20;10.07;;;9.60;99.90;;;;;;6161299;23;20009;-80
2022/11/06 01:09:20;;;;;;;14.45;8.90;;;9.60;99.90;;;;;;6187829;23;20020;-79
2022/11/06 01:11:51;;;;;;;14.75;8.50;;;9.70;99.90;;;;;;6187937;23;20013;-78
2022/11/06 01:14:18;;;;;;;18.02;10.25;;;9.70;99.90;;;;;;6161207;23;20021;-78
2022/11/06 01:16:44;;;;;;;14.57;9.55;;;9.60;99.90;;;;;;6187886;23;20021;-78
2022/11/06 01:19:12;;;;;;;15.60;9.32;;;9.70;99.90;;;;;;6161165;23;20032;-79
2022/11/06 01:21:40;;;;;;;15.23;8.85;;;9.70;99.90;;;;;;6161118;23;20009;-81
2022/11/06 01:24:12;;;;;;;15.38;9.90;;;9.70;99.90;;;;;;6187432;23;20456;-78
2022/11/06 01:26:38;;;;;;;20.13;9.18;;;9.70;99.90;;;;;;6187856;23;20079;-78
2022/11/06 01:29:05;;;;;;;14.75;8.95;;;9.70;99.90;;;;;;6161040;23;20442;-78
2022/11/06 01:31:33;;;;;;;16.80;8.77;;;9.70;99.90;;;;;;6161086;23;20013;-79
2022/11/06 01:34:00;;;;;;;14.82;9.15;;;9.70;99.90;;;;;;6187854;23;20017;-78
2022/11/06 01:36:27;;;;;;;14.13;9.07;;;9.80;99.90;;;;;;6161072;23;20013;-78
2022/11/06 01:38:57;;;;;;;14.20;9.07;;;9.80;99.90;;;;;;6187357;23;20517;-78
2022/11/06 01:41:26;;;;;;;15.35;10.27;;;9.80;99.90;;;;;;6161339;23;20021;-80
2022/11/06 01:43:55;;;;;;;16.52;9.15;;;9.80;99.90;;;;;;6160790;23;20091;-78
2022/11/06 01:46:25;;;;;;;16.27;9.13;;;9.80;99.90;;;;;;6187677;23;20091;-79
2022/11/06 01:48:56;;;;;;;16.75;9.82;;;9.80;99.90;;;;;;6187586;23;20052;-78
2022/11/06 01:51:25;;;;;;;15.60;9.00;;;9.80;99.90;;;;;;6160986;23;20047;-78
2022/11/06 01:53:52;;;;;;;18.00;11.05;;;9.80;99.90;;;;;;6160852;23;20017;-78
2022/11/06 01:56:19;;;;;;;19.92;10.30;;;9.80;99.90;;;;;;6160812;23;20350;-78
2022/11/06 01:58:46;;;;;;;17.13;9.90;;;9.80;99.90;;;;;;6187301;23;20020;-79
2022/11/06 02:01:12;;;;;;;16.75;9.43;;;9.80;99.90;;;;;;6161226;23;20024;-80
2022/11/06 02:03:43;;;;;;;16.80;10.02;;;9.80;99.90;;;;;;6160740;23;20047;-79
2022/11/06 02:06:09;;;;;;;15.70;9.98;;;9.90;99.90;;;;;;6187420;23;20044;-78
2022/11/06 02:08:35;;;;;;;14.75;10.52;;;9.90;99.90;;;;;;6160613;23;20028;-79
2022/11/06 02:11:01;;;;;;;14.77;10.13;;;9.80;99.90;;;;;;6160743;23;20017;-80
2022/11/06 02:13:49;;;;;;;14.55;10.68;;;9.80;99.90;;;;;;6187017;23;20021;-79
2022/11/06 02:16:32;;;;;;;16.35;10.02;;;9.90;99.90;;;;;;6160644;23;20464;-79
2022/11/06 02:19:08;;;;;;;17.35;10.90;;;9.90;99.90;;;;;;6187053;23;20345;-78
2022/11/06 02:21:48;;;;;;;16.60;11.02;;;9.90;99.90;;;;;;6187275;23;20009;-78
2022/11/06 02:24:29;;;;;;;18.48;10.75;;;9.90;99.90;;;;;;6160634;23;20076;-78
2022/11/06 02:27:15;;;;;;;14.82;10.90;;;9.90;99.90;;;;;;6160507;23;20323;-78
2022/11/06 02:29:53;;;;;;;16.85;10.32;;;9.80;99.90;;;;;;6187217;23;20079;-81
2022/11/06 02:32:29;;;;;;;16.38;11.05;;;9.90;99.90;;;;;;6161032;23;20442;-79
2022/11/06 02:34:57;;;;;;;15.32;10.32;;;9.90;99.90;;;;;;6187147;23;20020;-79
2022/11/06 02:37:28;;;;;;;17.40;11.07;;;9.90;99.90;;;;;;6160481;23;20045;-79
2022/11/06 02:39:56;;;;;;;18.27;11.23;;;9.90;99.90;;;;;;6160484;23;20040;-78
2022/11/06 02:42:24;;;;;;;17.10;11.40;;;9.90;99.90;;;;;;6160234;23;20017;-78
2022/11/06 02:44:53;;;;;;;16.52;11.25;;;9.90;99.90;;;;;;6187133;23;20024;-79
2022/11/06 02:47:21;;;;;;;19.63;11.38;;;10.00;99.90;;;;;;6160423;23;20051;-79
2022/11/06 02:49:53;;;;;;;13.65;10.57;;;9.90;99.90;;;;;;6186627;23;20100;-79
2022/11/06 02:52:28;;;;;;;17.95;11.48;;;9.90;99.90;;;;;;6160309;23;20021;-78
2022/11/06 02:54:59;;;;;;;15.57;11.57;;;9.90;99.90;;;;;;6186617;23;20438;-79
2022/11/06 02:57:27;;;;;;;17.25;11.50;;;9.90;99.90;;;;;;6160223;23;20028;-79
2022/11/06 03:00:08;;;;;;;20.02;12.38;;;10.00;99.90;;;;;;6186927;23;20083;-79
2022/11/06 03:02:39;;;;;;;16.73;11.48;;;10.00;99.90;;;;;;6186860;23;20049;-79
2022/11/06 03:05:33;;;;;;;20.67;11.70;;;9.90;99.90;;;;;;6186509;23;20471;-79
2022/11/06 03:08:12;;;;;;;17.38;11.57;;;9.90;99.90;;;;;;6186300;23;20333;-79
2022/11/06 03:10:53;;;;;;;18.08;12.13;;;10.00;99.90;;;;;;6186576;23;20087;-78
2022/11/06 03:13:41;;;;;;;23.67;13.85;;;10.00;99.90;;;;;;6160154;23;20020;-79
2022/11/06 03:16:51;;;;;;;19.27;13.02;;;10.00;99.90;;;;;;6159177;23;20024;-78
2022/11/06 03:19:20;;;;;;;18.63;12.13;;;10.00;99.90;;;;;;6123406;23;20013;-78
2022/11/06 03:22:06;;;;;;;24.27;12.88;;;10.00;99.90;;;;;;6160102;23;20024;-78
2022/11/06 03:24:33;;;;;;;19.52;13.35;;;10.00;99.90;;;;;;6160008;23;20021;-78
2022/11/06 03:27:06;;;;;;;20.17;13.40;;;10.00;99.90;;;;;;6159947;23;20441;-77
2022/11/06 03:29:35;;;;;;;17.60;12.50;;;10.00;99.90;;;;;;6159879;23;20017;-78
2022/11/06 03:32:16;;;;;;;20.15;12.90;;;10.00;99.90;;;;;;6160013;23;20067;-78
2022/11/06 03:35:05;;;;;;;19.08;13.68;;;10.00;99.90;;;;;;6159934;23;20021;-78
2022/11/06 03:37:43;;;;;;;20.33;12.05;;;10.10;99.90;;;;;;6186610;23;20016;-78
2022/11/06 03:40:14;;;;;;;19.45;12.65;;;10.10;99.90;;;;;;6159854;23;20021;-78
2022/11/06 03:42:41;;;;;;;19.00;12.23;;;10.10;99.90;;;;;;6186198;23;20017;-78
2022/11/06 03:45:12;;;;;;;16.40;12.95;;;10.10;99.90;;;;;;6186474;23;20063;-78
2022/11/06 03:47:43;;;;;;;19.88;12.48;;;10.10;99.90;;;;;;6159827;23;20346;-78
2022/11/06 03:50:26;;;;;;;19.02;12.77;;;10.00;99.90;;;;;;6186368;23;20060;-78
2022/11/06 03:52:59;;;;;;;18.10;12.25;;;10.10;99.90;;;;;;6186548;23;20048;-79
2022/11/06 03:55:30;;;;;;;19.23;11.93;;;10.10;99.90;;;;;;6186512;23;20028;-79
2022/11/06 03:58:03;;;;;;;18.10;12.80;;;10.10;99.90;;;;;;6159825;23;20024;-78
2022/11/06 04:00:32;;;;;;;18.05;12.55;;;10.10;99.90;;;;;;6159765;23;20013;-78
2022/11/06 04:03:06;;;;;;;18.35;12.93;;;10.10;99.90;;;;;;6159707;23;20112;-79
2022/11/06 04:05:37;;;;;;;18.05;11.88;;;10.10;99.90;;;;;;6159749;23;20076;-79
2022/11/06 04:13:57;;;;;;;18.50;11.98;;;10.10;99.90;;;;;;6186011;23;20322;-80
2022/11/06 04:16:25;;;;;;;18.42;12.85;;;10.20;99.90;;;;;;6159651;23;20095;-78
2022/11/06 04:18:51;;;;;;;18.02;11.90;;;10.20;99.90;;;;;;6186216;23;20013;-78
2022/11/06 04:21:36;;;;;;;20.17;12.95;;;10.20;99.90;;;;;;6185798;23;20017;-79
2022/11/06 04:27:27;;;;;;;19.35;13.18;;;10.20;99.90;;;;;;6159602;23;20025;-79
2022/11/06 04:30:04;;;;;;;20.67;13.45;;;10.20;99.90;;;;;;6159440;23;20457;-78
2022/11/06 04:33:02;;;;;;;20.20;12.25;;;10.20;99.90;;;;;;6159561;23;20021;-79
2022/11/06 04:35:48;;;;;;;20.23;13.73;;;10.20;99.90;;;;;;6159506;23;20019;-78
2022/11/06 04:38:36;;;;;;;20.23;12.52;;;10.20;99.90;;;;;;6159645;23;20021;-79
2022/11/06 04:41:11;;;;;;;18.00;12.32;;;10.20;99.90;;;;;;6159525;23;20031;-80
2022/11/06 04:43:45;;;;;;;21.98;12.85;;;10.20;99.90;;;;;;6185644;23;20333;-79
2022/11/06 04:46:18;;;;;;;17.92;12.55;;;10.20;99.90;;;;;;6186091;23;20020;-78
2022/11/06 04:48:45;;;;;;;22.88;12.82;;;10.20;99.90;;;;;;6186120;23;20088;-78
2022/11/06 04:51:13;;;;;;;22.27;12.32;;;10.20;99.90;;;;;;6159461;23;20076;-78
2022/11/06 04:53:40;;;;;;;19.00;12.18;;;10.20;99.90;;;;;;6159468;23;20469;-78
2022/11/06 04:56:10;;;;;;;20.30;12.95;;;10.20;99.90;;;;;;6159474;23;20082;-78
2022/11/06 04:58:37;;;;;;;21.27;13.55;;;10.20;99.90;;;;;;6186811;23;20471;-78
2022/11/06 05:01:03;;;;;;;20.13;13.13;;;10.20;99.90;;;;;;6186031;23;20028;-79
2022/11/06 05:03:29;;;;;;;19.30;13.27;;;10.20;99.90;;;;;;6159364;23;20036;-77
2022/11/06 05:05:54;;;;;;;20.58;12.60;;;10.20;99.90;;;;;;6185859;23;20029;-78
2022/11/06 05:08:20;;;;;;;23.80;13.32;;;10.20;99.90;;;;;;6185985;23;20013;-78
2022/11/06 05:10:47;;;;;;;24.60;13.15;;;10.20;99.90;;;;;;6159336;23;20120;-78
2022/11/06 05:13:14;;;;;;;21.17;12.63;;;10.10;99.90;;;;;;6186016;23;20024;-79
2022/11/06 05:15:40;;;;;;;20.05;12.25;;;10.20;99.90;;;;;;6159304;23;20021;-78
2022/11/06 05:18:06;;;;;;;17.92;12.45;;;10.10;99.90;;;;;;6159355;23;20059;-78
2022/11/06 05:20:32;;;;;;;16.05;11.45;;;10.20;99.90;;;;;;6186034;23;20020;-79
2022/11/06 05:22:59;;;;;;;20.35;12.98;;;10.10;99.90;;;;;;6185602;23;20373;-78
2022/11/06 05:25:31;;;;;;;20.60;13.10;;;10.10;99.90;;;;;;6159347;23;20505;-78
2022/11/06 05:27:56;;;;;;;16.70;11.93;;;10.10;99.90;;;;;;6159310;23;20017;-78
2022/11/06 05:30:23;;;;;;;19.73;12.35;;;10.10;99.90;;;;;;6159342;23;20028;-78
2022/11/06 05:32:49;;;;;;;15.82;11.48;;;10.10;99.90;;;;;;6160110;23;20021;-78
2022/11/06 05:35:16;;;;;;;19.63;12.85;;;10.10;99.90;;;;;;6160991;23;20021;-79
2022/11/06 05:37:41;;;;;;;18.13;11.85;;;10.10;99.90;;;;;;6160988;23;20023;-78
2022/11/06 05:40:07;;;;;;;19.67;12.10;;;10.10;99.90;;;;;;6161035;23;20096;-78
2022/11/06 05:42:36;;;;;;;18.83;11.80;;;10.10;99.90;;;;;;6155809;23;20331;-78
2022/11/06 05:45:01;;;;;;;19.25;11.73;;;10.20;99.90;;;;;;6157837;23;20017;-78
2022/11/06 05:47:27;;;;;;;19.30;11.88;;;10.10;99.90;;;;;;6157794;23;20067;-78
2022/11/06 05:49:53;;;;;;;17.55;10.98;;;10.10;99.90;;;;;;6157350;23;20353;-77
2022/11/06 05:52:18;;;;;;;18.45;11.70;;;10.10;99.90;;;;;;6131337;23;20017;-83
2022/11/06 05:54:44;;;;;;;21.58;11.70;;;10.10;99.90;;;;;;6157711;23;20013;-78
2022/11/06 05:57:09;;;;;;;18.90;11.80;;;10.20;99.90;;;;;;6131379;23;20021;-78
2022/11/06 05:59:35;;;;;;;20.08;11.38;;;10.20;99.90;;;;;;6131290;23;20025;-77
2022/11/06 06:02:00;;;;;;;20.60;12.38;;;10.10;99.90;;;;;;6157705;23;20014;-78
2022/11/06 06:04:26;;;;;;;21.60;12.05;;;10.10;99.90;;;;;;6157673;23;20036;-78
2022/11/06 06:06:52;;;;;;;22.23;12.63;;;10.10;99.90;;;;;;6157669;23;20374;-78
2022/11/06 06:09:17;;;;;;;22.88;11.23;;;10.10;99.90;;;;;;6157495;23;20017;-80
2022/11/06 06:11:43;;;;;;;20.23;11.82;;;10.10;99.90;;;;;;6131199;23;20025;-79
2022/11/06 06:14:08;;;;;;;20.50;12.15;;;10.10;99.90;;;;;;6131060;23;20017;-78
2022/11/06 06:16:34;;;;;;;17.65;10.75;;;10.10;99.90;;;;;;6157147;23;20045;-80
2022/11/06 06:19:00;;;;;;;19.95;11.40;;;10.10;99.90;;;;;;6131143;23;20446;-79
2022/11/06 06:21:26;;;;;;;17.30;11.05;;;10.10;99.90;;;;;;6157101;23;20022;-79
2022/11/06 06:23:51;;;;;;;18.40;11.38;;;10.10;99.90;;;;;;6157182;23;20464;-79
2022/11/06 06:26:17;;;;;;;19.17;11.25;;;10.10;99.90;;;;;;6157548;23;20009;-79
2022/11/06 06:28:42;;;;;;;19.05;11.13;;;10.10;99.90;;;;;;6157027;23;20350;-78
2022/11/06 06:31:10;;;;;;;19.92;11.70;;;10.10;99.90;;;;;;6157114;23;20342;-78
2022/11/06 06:33:35;;;;;;;19.33;11.35;;;10.00;99.90;;;;;;6130985;23;20028;-78
2022/11/06 06:36:05;;;;;;;18.15;11.43;;;10.00;99.90;;;;;;6130829;23;20018;-79
2022/11/06 06:38:31;;;;;;;18.42;11.73;;;10.10;99.90;;;;;;6156907;23;20017;-79
2022/11/06 06:41:02;;;;;;;16.73;10.35;;;10.00;99.90;;;;;;6130668;23;20472;-80
2022/11/06 06:43:27;;;;;;;16.70;10.73;;;10.10;99.90;;;;;;6130590;23;20123;-79
2022/11/06 06:45:56;;;;;;;20.17;11.20;;;10.10;99.90;;;;;;6156970;23;20026;-78
2022/11/06 06:48:21;;;;;;;17.38;10.70;;;10.00;99.90;;;;;;6130578;23;20324;-78
2022/11/06 06:50:47;;;;;;;17.42;11.27;;;10.00;99.90;;;;;;6157013;23;20457;-79
2022/11/06 06:53:12;;;;;;;16.75;10.73;;;10.00;99.90;;;;;;6130462;23;20095;-78
2022/11/06 06:55:39;;;;;;;19.85;10.23;;;10.10;99.90;;;;;;6156533;23;20021;-78
2022/11/06 06:58:05;;;;;;;21.33;10.68;;;10.10;99.90;;;;;;6156154;23;20458;-78
2022/11/06 07:00:30;;;;;;;18.58;9.90;;;10.00;99.90;;;;;;6128697;23;20021;-78
2022/11/06 07:02:56;;;;;;;15.82;10.45;;;10.00;99.90;;;;;;6156535;23;20022;-79
2022/11/06 07:05:22;;;;;;;17.92;10.23;;;10.00;99.90;;;;;;6156909;23;20018;-78
2022/11/06 07:07:47;;;;;;;15.70;9.68;;;10.00;99.90;;;;;;6130536;23;20342;-79
2022/11/06 07:10:13;;;;;;;14.18;9.50;;;10.00;99.90;;;;;;6130298;23;20025;-79
2022/11/06 07:12:39;;;;;;;13.02;8.73;;;10.00;99.90;;;;;;6130522;23;20342;-78
2022/11/06 07:15:05;;;;;;;12.15;7.80;;;10.00;99.90;;;;;;6130515;23;20021;-79
2022/11/06 07:17:31;;;;;;;14.43;8.70;;;9.90;99.90;;;;;;6130370;23;20014;-77
2022/11/06 07:19:56;;;;;;;14.60;9.07;;;9.90;99.90;;;;;;6130427;23;20032;-78
2022/11/06 07:22:25;;;;;;;14.82;9.13;;;9.90;99.90;;;;;;6130467;23;20345;-80
2022/11/06 07:24:51;;;;;;;13.77;9.85;;;9.90;99.90;;;;;;6130278;23;20014;-78
2022/11/06 07:27:17;;;;;;;16.50;9.45;;;9.90;99.90;;;;;;6156735;23;20337;-79
2022/11/06 07:29:42;;;;;;;15.43;10.48;;;9.90;99.90;;;;;;6130183;23;20017;-78
2022/11/06 07:32:08;;;;;;;21.08;11.02;;;9.80;99.90;;;;;;6130356;23;20492;-78
2022/11/06 07:34:33;;;;;;;17.38;10.15;;;9.80;99.90;;;;;;6129192;23;20441;-81
2022/11/06 07:36:59;;;;;;;18.83;10.77;;;9.90;99.90;;;;;;6130100;23;20056;-78
2022/11/06 07:39:25;;;;;;;19.77;10.43;;;9.90;99.90;;;;;;6130063;23;20032;-78
2022/11/06 07:41:50;;;;;;;22.58;9.95;;;9.80;99.90;;;;;;6156209;23;20012;-79
2022/11/06 07:44:16;;;;;;;17.35;10.43;;;9.90;99.90;;;;;;6130055;23;20033;-78
2022/11/06 07:46:42;;;;;;;16.35;10.60;;;9.90;99.90;;;;;;6130372;23;20338;-78
2022/11/06 07:49:08;;;;;;;20.10;10.10;;;9.90;99.90;;;;;;6155889;23;20041;-78
2022/11/06 07:51:34;;;;;;;15.48;9.70;;;9.80;99.90;;;;;;6129901;23;20018;-78
2022/11/06 07:53:59;;;;;;;16.83;9.30;;;9.80;99.90;;;;;;6156341;23;20093;-78
2022/11/06 07:56:25;;;;;;;17.50;9.32;;;9.90;99.90;;;;;;6155634;23;20032;-77
2022/11/06 07:58:51;;;;;;;14.63;8.20;;;9.80;99.90;;;;;;6156366;23;20013;-78
2022/11/06 08:01:17;;;;;;;13.57;8.65;;;9.80;99.90;;;;;;6156232;23;20013;-77
2022/11/06 08:03:43;;;;;;;14.05;8.90;;;9.80;99.90;;;;;;6155933;23;20497;-78
2022/11/06 08:06:09;;;;;;;15.25;7.50;;;9.80;99.90;;;;;;6129730;23;20323;-78
2022/11/06 08:08:35;;;;;;;11.85;7.93;;;9.90;99.90;;;;;;6129717;23;20013;-77
2022/11/06 08:11:05;;;;;;;15.98;7.65;;;9.90;99.90;;;;;;6129666;23;20071;-77
2022/11/06 08:13:32;;;;;;;14.88;7.50;;;9.90;99.90;;;;;;6129892;23;20071;-77
2022/11/06 08:16:02;;;;;;;16.30;8.07;;;10.00;99.90;;;;;;6155877;23;20025;-77
2022/11/06 08:18:27;;;;;;;15.77;8.88;;;9.90;99.90;;;;;;6156175;23;20013;-78
2022/11/06 08:20:53;;;;;;;15.68;7.97;;;9.90;99.90;;;;;;6156270;23;20088;-77
2022/11/06 08:23:19;;;;;;;13.63;7.88;;;9.90;99.90;;;;;;6155722;23;20338;-78
2022/11/06 08:25:44;;;;;;;11.38;7.05;;;10.00;99.90;;;;;;6129621;23;20426;-78
2022/11/06 08:28:10;;;;;;;14.60;7.75;;;9.90;99.90;;;;;;6139683;23;20021;-78
2022/11/06 08:30:36;;;;;;;15.25;7.88;;;9.90;99.90;;;;;;6129732;23;20048;-77
2022/11/06 08:33:05;;;;;;;12.73;7.57;;;9.90;99.90;;;;;;6129669;23;20024;-77
2022/11/06 08:35:30;;;;;;;17.98;8.13;;;10.00;99.90;;;;;;6129766;23;20040;-78
2022/11/06 08:37:56;;;;;;;14.38;8.07;;;10.00;99.90;;;;;;6155970;23;20342;-78
2022/11/06 08:40:22;;;;;;;14.38;7.80;;;10.10;99.90;;;;;;6156042;23;20044;-78
2022/11/06 08:42:48;;;;;;;12.73;7.75;;;10.00;99.90;;;;;;6141530;23;20456;-79
2022/11/06 08:45:14;;;;;;;11.20;7.78;;;10.10;99.90;;;;;;6185848;23;20059;-78
2022/11/06 08:47:39;;;;;;;18.38;8.13;;;10.00;99.90;;;;;;6185782;23;20010;-78
2022/11/06 08:50:05;;;;;;;15.35;7.45;;;10.00;99.90;;;;;;6185482;23;20017;-78
2022/11/06 08:52:31;;;;;;;11.20;7.63;;;10.10;99.90;;;;;;6158797;23;20017;-79
2022/11/06 08:54:56;;;;;;;14.02;7.32;;;10.10;99.90;;;;;;6159220;23;20354;-79
2022/11/06 08:57:22;;;;;;;14.88;7.97;;;10.10;99.90;;;;;;6159207;23;20040;-78
2022/11/06 08:59:48;;;;;;;14.20;7.82;;;10.20;99.90;;;;;;6185829;23;20021;-80
2022/11/06 09:02:14;;;;;;;12.55;7.72;;;10.10;99.90;;;;;;6159168;23;20013;-77
2022/11/06 09:04:40;;;;;;;18.75;7.90;;;10.10;99.90;;;;;;6185444;23;20067;-78
2022/11/06 09:07:06;;;;;;;18.75;7.32;;;10.10;99.90;;;;;;6185953;23;20025;-78
2022/11/06 09:09:32;;;;;;;13.68;7.57;;;10.20;99.90;;;;;;6187605;23;20024;-78
2022/11/06 09:11:59;;;;;;;14.63;6.55;;;10.10;99.90;;;;;;6160899;23;20013;-78
2022/11/06 09:14:25;;;;;;;13.80;7.20;;;10.20;99.90;;;;;;6160964;23;20371;-78
2022/11/06 09:16:51;;;;;;;12.80;7.03;;;10.20;99.90;;;;;;6187581;23;20019;-78
2022/11/06 09:19:16;;;;;;;14.80;6.70;;;10.20;99.90;;;;;;6187507;23;20045;-78
2022/11/06 09:21:42;;;;;;;12.70;6.85;;;10.20;99.90;;;;;;6187393;23;20059;-79
2022/11/06 09:24:08;;;;;;;13.57;6.47;;;10.20;99.90;;;;;;6160854;23;20052;-79
2022/11/06 09:26:33;;;;;;;15.52;7.22;;;10.20;99.90;;;;;;6187466;23;20489;-79
2022/11/06 09:28:59;;;;;;;13.82;7.68;;;10.20;99.90;;;;;;6187314;23;20088;-79
2022/11/06 09:31:25;;;;;;;16.92;7.45;;;10.20;99.90;;;;;;6160761;23;20021;-78
2022/11/06 09:33:50;;;;;;;12.65;6.90;;;10.10;99.90;;;;;;6160800;23;20445;-78
2022/11/06 09:36:16;;;;;;;10.57;6.32;;;10.10;99.90;;;;;;6187322;23;20032;-78
2022/11/06 09:38:42;;;;;;;8.98;6.35;;;10.10;99.90;;;;;;6186980;23;20060;-78
2022/11/06 09:41:24;;;;;;;17.33;6.93;;;10.20;99.90;;;;;;6160679;23;20055;-79
2022/11/06 09:44:36;;;;;;;10.75;6.63;;;10.10;99.90;;;;;;6160445;23;20017;-79
2022/11/06 09:47:11;;;;;;;14.50;7.38;;;10.10;99.90;;;;;;6154828;23;20032;-80
2022/11/06 09:49:46;;;;;;;13.88;7.05;;;10.10;99.90;;;;;;6187175;23;20089;-80
2022/11/06 09:52:15;;;;;;;17.25;6.90;;;10.10;99.90;;;;;;6187325;23;20017;-79
2022/11/06 09:54:56;;;;;;;15.55;6.82;;;10.10;99.90;;;;;;6187199;23;20013;-79
2022/11/06 09:57:48;;;;;;;10.82;6.35;;;10.10;99.90;;;;;;6160530;23;20017;-79
2022/11/06 10:00:16;;;;;;;11.93;5.90;;;10.10;99.90;;;;;;6139709;23;20454;-79
2022/11/06 10:02:58;;;;;;;15.50;7.63;;;10.10;99.90;;;;;;6160562;23;20019;-79
2022/11/06 10:05:33;;;;;;;12.80;6.38;;;10.00;99.90;;;;;;6160497;23;20088;-79
2022/11/06 10:08:18;;;;;;;12.65;7.15;;;10.10;99.90;;;;;;6187214;23;20013;-79
2022/11/06 10:11:05;;;;;;;10.50;5.95;;;10.00;99.90;;;;;;6160293;23;20020;-78
2022/11/06 10:13:49;;;;;;;15.65;6.32;;;10.00;99.90;;;;;;6160471;23;20021;-77
2022/11/06 10:16:39;;;;;;;11.40;5.97;;;10.00;99.90;;;;;;6160260;23;20017;-79
2022/11/06 10:19:33;;;;;;;10.40;5.93;;;10.10;99.90;;;;;;6186552;23;20092;-79
2022/11/06 10:22:40;;;;;;;11.50;5.90;;;10.00;99.90;;;;;;6186942;23;20032;-80
2022/11/06 10:25:19;;;;;;;15.88;6.70;;;10.00;99.90;;;;;;6160289;23;20113;-78
2022/11/06 10:28:18;;;;;;;17.02;6.25;;;10.10;99.90;;;;;;6160236;23;20067;-79
2022/11/06 10:30:51;;;;;;;9.63;5.82;;;10.00;99.90;;;;;;6160265;23;20021;-79
2022/11/06 10:33:37;;;;;;;13.90;7.10;;;10.10;99.90;;;;;;6160373;23;20019;-81
2022/11/06 10:36:12;;;;;;;14.63;6.45;;;10.10;99.90;;;;;;6186906;23;20021;-79
2022/11/06 10:38:41;;;;;;;13.98;6.68;;;10.10;99.90;;;;;;6159783;23;20009;-80
2022/11/06 10:41:17;;;;;;;17.63;6.38;;;10.10;99.90;;;;;;6186503;23;20028;-80
2022/11/06 10:43:47;;;;;;;13.70;6.63;;;10.10;99.90;;;;;;6162373;23;20346;-79
2022/11/06 10:46:38;;;;;;;14.32;6.35;;;10.10;99.90;;;;;;6156682;23;20045;-79
2022/11/06 10:49:29;;;;;;;13.35;6.28;;;10.10;99.90;;;;;;6156608;23;20021;-79
2022/11/06 10:52:06;;;;;;;17.55;7.13;;;10.20;99.90;;;;;;6156668;23;20463;-79
2022/11/06 10:54:53;;;;;;;14.25;6.65;;;10.20;99.90;;;;;;6130538;23;20025;-78
2022/11/06 10:57:44;;;;;;;14.30;5.90;;;10.20;99.90;;;;;;6156134;23;20025;-79
2022/11/06 11:00:12;;;;;;;19.20;6.55;;;10.20;99.90;;;;;;6130438;23;20087;-79
2022/11/06 11:02:51;;;;;;;15.77;6.25;;;10.30;99.90;;;;;;6130096;23;20032;-78
2022/11/06 11:05:19;;;;;;;13.10;5.50;;;10.30;99.90;;;;;;6156460;23;20072;-79
2022/11/06 11:07:47;;;;;;;16.98;6.13;;;10.30;99.90;;;;;;6130008;23;20080;-79
2022/11/06 11:10:22;;;;;;;10.93;5.53;;;10.40;99.90;;;;;;6130242;23;20029;-79
2022/11/06 11:12:48;;;;;;;10.15;5.53;;;10.40;99.90;;;;;;6130287;23;20056;-78
2022/11/06 11:15:19;;;;;;;11.65;5.18;;;10.40;99.90;;;;;;6130260;23;20018;-78
2022/11/06 11:18:06;;;;;;;15.30;5.30;;;10.50;99.90;;;;;;6156363;23;20457;-79
2022/11/06 11:20:35;;;;;;;16.48;5.28;;;10.50;99.90;;;;;;6130167;23;20010;-79
2022/11/06 11:23:22;;;;;;;14.88;4.97;;;10.50;99.90;;;;;;6130111;23;20018;-79
2022/11/06 11:25:54;;;;;;;15.90;5.15;;;10.50;99.90;;;;;;6130431;23;20021;-79
2022/11/06 11:28:27;;;;;;;10.40;4.63;;;10.50;99.90;;;;;;6156555;23;20021;-81
2022/11/06 11:30:54;;;;;;;;;;;10.50;99.90;;;;;;6130244;23;20021;-80
2022/11/06 11:33:24;;;;;;;10.70;4.60;;;10.60;99.90;;;;;;6156525;23;19959;-80
2022/11/06 11:35:50;;;;;;;15.00;5.15;;;10.60;99.90;;;;;;6130218;23;20028;-78
2022/11/06 11:38:18;;;;;;;11.70;5.68;;;10.60;99.90;;;;;;6129995;23;20017;-79
2022/11/06 11:40:44;;;;;;;12.63;4.85;;;10.70;99.90;;;;;;6129604;23;20517;-79
2022/11/06 11:43:31;;;;;;;11.75;4.70;;;10.70;99.90;;;;;;6155516;23;20017;-79
2022/11/06 11:46:09;;;;;;;12.00;5.18;;;10.70;99.90;;;;;;6129998;23;20071;-79
2022/11/06 11:48:56;;;;;;;10.20;4.75;;;10.70;99.90;;;;;;6129787;23;20346;-78
2022/11/06 11:51:39;;;;;;;14.73;4.85;;;10.70;99.90;;;;;;6130101;23;20021;-77
2022/11/06 11:54:15;;;;;;;14.35;5.43;;;10.80;99.90;;;;;;6129852;23;20071;-78
2022/11/06 11:56:53;;;;;;;15.63;5.05;;;10.80;99.90;;;;;;6129975;23;20021;-79
2022/11/06 11:59:47;;;;;;;16.65;5.00;;;10.90;99.90;;;;;;6129570;23;20017;-79
2022/11/06 12:02:30;;;;;;;10.57;4.53;;;10.80;99.90;;;;;;6129780;23;20025;-78
2022/11/06 12:04:59;;;;;;;8.82;4.63;;;10.80;99.90;;;;;;6129939;23;20107;-78
2022/11/06 12:07:29;;;;;;;10.05;4.88;;;10.80;99.90;;;;;;6129859;23;20020;-78
2022/11/06 12:09:55;;;;;;;11.20;5.35;;;10.80;99.90;;;;;;6129840;23;20096;-79
2022/11/06 12:12:30;;;;;;;10.35;4.50;;;10.80;99.90;;;;;;6155870;23;20017;-78
2022/11/06 12:15:21;;;;;;;11.30;4.65;;;10.90;99.90;;;;;;6129863;23;20021;-79
2022/11/06 12:17:58;;;;;;;13.07;4.60;;;10.90;99.90;;;;;;6129576;23;20029;-79
2022/11/06 12:20:37;;;;;;;10.68;4.90;;;10.90;99.90;;;;;;6129863;23;20072;-80
2022/11/06 12:23:09;;;;;;;12.23;4.63;;;10.90;99.90;;;;;;6156223;23;20010;-78
2022/11/06 12:25:40;;;;;;;8.87;4.70;;;10.90;99.90;;;;;;6129759;23;20041;-79
2022/11/06 12:28:13;;;;;;;13.43;4.82;;;11.00;99.90;;;;;;6129937;23;20063;-79
2022/11/06 12:30:43;;;;;;;8.40;4.20;;;11.00;99.90;;;;;;6129822;23;20021;-79
2022/11/06 12:33:26;;;;;;;10.18;4.55;;;11.00;99.90;;;;;;6130158;23;20014;-79
2022/11/06 12:36:00;;;;;;;10.20;4.30;;;11.00;99.90;;;;;;6155857;23;20150;-79
2022/11/06 12:38:47;;;;;;;12.32;4.32;;;11.10;99.90;;;;;;6156218;23;20013;-79
2022/11/06 12:41:20;;;;;;;9.68;4.20;;;11.10;99.90;;;;;;6128818;23;20013;-79
2022/11/06 12:43:47;;;;;;;;;;;11.10;99.90;;;;;;6129738;23;20025;-78
2022/11/06 12:46:31;;;;;;;8.40;4.22;;;11.10;99.90;;;;;;6131739;23;19921;-79
2022/11/06 12:49:13;;;;;;;9.35;4.10;;;11.20;99.90;;;;;;6131817;23;20017;-78
2022/11/06 12:52:16;;;;;;;9.23;3.33;;;11.30;99.90;;;;;;6158069;23;20097;-79
2022/11/06 12:54:56;;;;;;;7.53;3.40;;;11.20;99.90;;;;;;6124895;23;20563;-78
2022/11/06 12:57:30;;;;;;;11.63;4.20;;;11.30;99.90;;;;;;6131679;23;20060;-78
2022/11/06 13:00:05;;;;;;;10.10;4.75;;;11.40;99.90;;;;;;6131728;23;20092;-79
2022/11/06 13:02:49;;;;;;;11.05;3.42;;;11.40;99.90;;;;;;6131746;23;20011;-79
2022/11/06 13:05:17;;;;;;;7.53;3.40;;;11.40;99.90;;;;;;6131828;23;20079;-80
2022/11/06 13:08:04;;;;;;;10.38;3.58;;;11.40;99.90;;;;;;6131654;23;20013;-79